Championnat Départemental Avenirs Jeunes

Départementale

SAINT-LOUIS

Le Dimanche 28 Avril 2019

Bassin de 25m

100 Nage Libre Dames

Séries

Nom Année Club Pays Temps Points Niv.
1 BIANCHI Manon 2006 MULHOUSE ON FRA 1:04:25 967
2 GAUTHERAT Romane 2006 THANN OLYMPIC N FRA 1:04:71 952
3 DESCHAMPS Theoline 2007 MULHOUSE ON FRA 1:05:87 915
4 GUIMBAUD Nora 2006 DAUPHINS DE ST-LOUIS FRA 1:07:60 861
5 AVENEL Margot 2008 DAUPHINS DE ST-LOUIS FRA 1:09:43 806
6 YALCIN Selin 2006 DAUPHINS DE ST-LOUIS FRA 1:10:18 784
7 SOLDERMANN Maeva 2008 DAUPHINS DE ST-LOUIS FRA 1:10:37 779
8 UMAC Aylin 2007 SR COLMAR FRA 1:10:83 765
9 KLINK Manon 2008 DAUPHINS DE ST-LOUIS FRA 1:10:97 761
10 KARABEKE Sara 2006 DAUPHINS DE ST-LOUIS FRA 1:11:31 751
11 KIEFFER Lianna 2006 A.N.S D'ILLFURTH FRA 1:12:33 723
12 EGMANN Elsa 2006 A.N.S D'ILLFURTH FRA 1:12:40 721
13 HANRIOT COLIN Chloé 2006 CN ILE DU RHIN FRA 1:13:05 703
14 LAMBERGER Ninon 2006 THANN OLYMPIC N FRA 1:14:63 660
15 ERLEWEIN Eva 2006 A.N.S D'ILLFURTH FRA 1:14:69 658
16 WERLEN Maeva 2006 DAUPHINS DE ST-LOUIS FRA 1:14:70 658
17 ARNAUD Méline 2007 CN ILE DU RHIN FRA 1:15:23 644
18 AZZOUZ Siena 2006 SR CERNAY FRA 1:16:57 609
19 DUPONT Anna 2007 A.N.S D'ILLFURTH FRA 1:16:84 602
20 DESCHAMPS Clementine 2008 MULHOUSE ON FRA 1:17:54 584
21 WIECZOREK Melanie 2007 1:17:91 575
22 ZWENGER Eléa 2007 1:18:50 560
23 DUREAULT Chloe 2008 DAUPHINS DE ST-LOUIS FRA 1:18:87 551
24 BRAHIM-BOUNAB Meline 2008 MULHOUSE ON FRA 1:19:39 538
25 BOUDET-BROBECKER Iphigenie 2008 DAUPHINS DE ST-LOUIS FRA 1:20:01 524
26 ANANI Fatima 2008 DAUPHINS DE ST-LOUIS FRA 1:20:59 510
27 GUTFREUND Maureen 2008 THANN OLYMPIC N FRA 1:21:01 500
28 RAMIS Natasha 2006 SR CERNAY FRA 1:22:00 477
29 DICK Maeva 2008 A.N.S D'ILLFURTH FRA 1:23:27 449
30 BATT Morgane 2007 DAUPHINS DE ST-LOUIS FRA 1:23:34 447
31 COLLET Lisa 2006 KAYSERSBERG NATATION FRA 1:23:81 437
32 WERTH Selena 2007 A.N.S D'ILLFURTH FRA 1:23:86 436
33 GANGLER Melina 2007 SR CERNAY FRA 1:24:10 431
34 BALDEWECK Romane 2008 SR COLMAR FRA 1:24:73 417
35 SERRATORE Iyomi 2008 DAUPHINS DE ST-LOUIS FRA 1:25:13 409
36 WERLEN Zoe 2008 DAUPHINS DE ST-LOUIS FRA 1:27:59 359
37 KARUPOVIC Hana 2007 MULHOUSE ON FRA 1:27:78 355
38 MONHEIT Keren 2008 SR COLMAR FRA 1:28:30 345
39 DECAUDIN Eva 2008 DAUPHINS DE ST-LOUIS FRA 1:28:55 340
40 RATELLI Emma 2007 MULHOUSE ON FRA 1:29:38 324
41 SELLES Lisa 2008 DAUPHINS DE ST-LOUIS FRA 1:30:12 310
42 SCHAPPLER Lisy 2008 CN ILE DU RHIN FRA 1:30:75 299
43 HAMOUSZ Anna-Ines 2008 MULHOUSE ON FRA 1:39:26 165
44 NORDEZ Eline 2007 SR COLMAR FRA 1:39:37 164
45 TROMMENSCHLAGER Elsa 2007 KAYSERSBERG NATATION FRA 1:40:48 149
46 CRUPI Lucielou 2008 KAYSERSBERG NATATION FRA 1:40:75 146
47 GRUNENWALD-MOUTH Caly 2008 SR CERNAY FRA 1:41:08 142
48 CHARROIS Pauline 2008 SR COLMAR FRA 1:41:21 140
49 BOEHRER Olwen 2008 MULHOUSE ON FRA 1:45:42 93